HKNWHKKI

Guest
Details From HKNW - NAIROBI WILSON
To HKKI - KISUMU
Flight Number -
Tags generated
Created
Modified
Stats Distance 146 nm / 271 km
Max Altitude 14,700 ft / 4,481 m
Waypoints 3
Social Downloads 1
Likes 0
Share VATSIM

Download

Looking for another format? Having issues loading an existing format? Contact us
Advertisement - Login to hide

Notes

Basic altitude profile: - Ascent Rate: 500ft/min - Ascent Speed: 70kts - Cruise Altitude: 10000ft - Cruise Speed: 90kts - Descent Rate: 500ft/min - Descent Speed: 100kts Options: - Use NATs: yes - Use PACOTS: yes - Use low airways: yes - Use high airways: yes

Route

HKNW EPVOK HKKI

ID Type Via Altitude Latitude Longitude Leg Dist Tot Dist Heading (true) Name
O HKNW APT - 0 ft / 0 m -1.32314˚ 36.81470˚ - 0 nm - NAIROBI WILSON
EPVOK FIX - 14,700 ft / 4,481 m -1.05000˚ 36.13472˚ 44 nm 44 nm 292° / 292° -
O HKKI APT - 0 ft / 0 m -0.08614˚ 34.72889˚ 102 nm 146 nm 304° / 304° KISUMU

Altitude Profile

Advertisement - Login to hide

HKNW

Details ICAO HKNW (WIL)
Name NAIROBI WILSON
Region Kenya
Timezone Africa/Nairobi (UTC+3.0)
Stats Elevation 5,546 ft / 1,690 m (AMSL)
Location -1.323145° 36.814695°
Runways 2
Magnetic Variation 0.595° E

METAR

HKNW 160900Z 07015KT 9999 FEW028 25/11 Q1021

Decode

TAF

Not found

Departure Runways

ID Width Length Bearing (true) Bearing (mag) Surface Threshold Offset Overrun Length
07 72 ft / 22 m 4,799 ft / 1,463 m 69.77° 69.17° Asphalt 0 ft / 0 m 0 ft / 0 m
14 76 ft / 23 m 5,065 ft / 1,544 m 134.15° 133.55° Asphalt 0 ft / 0 m 0 ft / 0 m
25 72 ft / 22 m 4,799 ft / 1,463 m 249.77° 249.17° Asphalt 0 ft / 0 m 0 ft / 0 m
32 76 ft / 23 m 5,065 ft / 1,544 m 314.15° 313.55° Asphalt 0 ft / 0 m 0 ft / 0 m

HKKI

Details ICAO HKKI (KIS)
Name KISUMU
Region Kenya
Timezone Africa/Nairobi (UTC+3.0)
Stats Elevation 3,796 ft / 1,157 m (AMSL)
Location -0.086139° 34.728892°
Runways 1
Magnetic Variation 1.254° E

METAR

HKKI 160900Z 22008KT 9999 FEW028 28/16 Q1016

Decode

TAF

TAF HKKI 160500Z 1606/1706 24010KT 9999 FEW027 TEMPO 1612/1618 FEW027CB BECMG 1620/1623 22005KT FEW020 TEMPO 1700/1706 CAVOK

Decode

Destination Runways

ID Width Length Bearing (true) Bearing (mag) Surface Threshold Offset Overrun Length
07 98 ft / 30 m 6,515 ft / 1,986 m 61.41° 60.16° Asphalt 0 ft / 0 m 350 ft / 107 m
25 98 ft / 30 m 6,515 ft / 1,986 m 241.41° 240.16° Asphalt 0 ft / 0 m 190 ft / 58 m

Popular Alternatives